Time;durP1;ratioP1;P1;durP2;ratioP2;P2;SDS_P1;SDS_P2;PMS_P1;PMS_P2;Temp;Humidity;BMP_temperature;BMP_pressure;BME280_temperature;BME280_humidity;BME280_pressure;Samples;Min_cycle;Max_cycle;Signal;HPM_P1;HPM_P2
2022/06/14 00:03:04;;;;;;;3.83;1.83;;;15.10;99.90;;;;;;4922956;29;20650;-74
2022/06/14 00:05:30;;;;;;;2.80;1.80;;;15.00;99.90;;;;;;4935466;29;20214;-73
2022/06/14 00:07:57;;;;;;;2.40;1.60;;;15.00;99.90;;;;;;4925162;29;20350;-73
2022/06/14 00:10:25;;;;;;;5.13;1.57;;;14.90;99.90;;;;;;4925697;29;20229;-73
2022/06/14 00:12:53;;;;;;;3.20;1.77;;;14.80;99.90;;;;;;4927620;29;20210;-73
2022/06/14 00:15:20;;;;;;;2.83;1.80;;;14.60;99.90;;;;;;4926111;29;20198;-73
2022/06/14 00:17:46;;;;;;;2.87;1.50;;;14.40;99.90;;;;;;4931143;29;20201;-74
2022/06/14 00:20:13;;;;;;;3.17;1.60;;;14.30;99.90;;;;;;4929981;29;20206;-73
2022/06/14 00:22:40;;;;;;;3.67;1.83;;;14.20;99.90;;;;;;4930692;29;20217;-74
2022/06/14 00:25:08;;;;;;;4.47;1.80;;;14.10;99.90;;;;;;4928794;29;20208;-74
2022/06/14 00:27:34;;;;;;;4.70;1.57;;;14.00;99.90;;;;;;4930277;29;20198;-74
2022/06/14 00:30:01;;;;;;;2.60;1.70;;;14.10;99.90;;;;;;4925331;29;20228;-72
2022/06/14 00:32:27;;;;;;;2.00;1.50;;;14.00;99.90;;;;;;4931893;29;20222;-74
2022/06/14 00:34:54;;;;;;;3.93;1.77;;;13.90;99.90;;;;;;4929298;29;20238;-75
2022/06/14 00:37:21;;;;;;;5.70;2.03;;;13.80;99.90;;;;;;4929743;29;20198;-74
2022/06/14 00:39:47;;;;;;;2.10;1.80;;;14.00;99.90;;;;;;4930772;29;20211;-74
2022/06/14 00:42:20;;;;;;;3.23;1.80;;;14.00;99.90;;;;;;4931328;29;20225;-75
2022/06/14 00:45:11;;;;;;;5.47;1.80;;;14.10;99.90;;;;;;4929281;29;20205;-74
2022/06/14 00:47:49;;;;;;;1.97;1.70;;;14.10;99.90;;;;;;4922180;29;20204;-74
2022/06/14 00:50:22;;;;;;;2.37;1.80;;;13.90;99.90;;;;;;4923677;29;20275;-75
2022/06/14 00:52:56;;;;;;;4.23;2.47;;;13.90;99.90;;;;;;4931983;29;20209;-73
2022/06/14 00:55:29;;;;;;;5.23;2.13;;;13.90;99.90;;;;;;4926842;29;20674;-74
2022/06/14 00:58:05;;;;;;;2.37;1.80;;;13.70;99.90;;;;;;4930229;29;20734;-72
2022/06/14 01:00:37;;;;;;;3.30;1.90;;;13.60;99.90;;;;;;4932718;29;20208;-74
2022/06/14 01:03:12;;;;;;;2.83;2.00;;;13.50;99.90;;;;;;4931306;29;20200;-74
2022/06/14 01:06:07;;;;;;;4.33;1.93;;;13.40;99.90;;;;;;4929189;29;20203;-74
2022/06/14 01:08:45;;;;;;;2.80;1.83;;;13.40;99.90;;;;;;4930864;29;20211;-75
2022/06/14 01:11:22;;;;;;;1.80;1.67;;;13.30;99.90;;;;;;4927492;29;20219;-74
2022/06/14 01:13:49;;;;;;;3.47;1.70;;;13.20;99.90;;;;;;4933716;29;20213;-74
2022/06/14 01:16:16;;;;;;;3.53;1.90;;;13.30;99.90;;;;;;4921448;29;20562;-74
2022/06/14 01:18:44;;;;;;;8.53;2.30;;;13.50;99.90;;;;;;4929012;29;20266;-74
2022/06/14 01:21:11;;;;;;;3.13;2.13;;;13.60;99.90;;;;;;4928259;29;20292;-74
2022/06/14 01:23:38;;;;;;;3.07;2.10;;;13.60;99.90;;;;;;4929710;29;20228;-73
2022/06/14 01:26:22;;;;;;;2.80;1.87;;;13.30;99.90;;;;;;4926714;29;20213;-74
2022/06/14 01:28:56;;;;;;;2.13;1.93;;;13.10;99.90;;;;;;4930766;29;20231;-74
2022/06/14 01:31:24;;;;;;;2.80;2.23;;;13.10;99.90;;;;;;4926247;29;20249;-74
2022/06/14 01:33:57;;;;;;;2.83;2.53;;;13.00;99.90;;;;;;4931195;29;20202;-74
2022/06/14 01:36:33;;;;;;;6.37;2.47;;;13.00;99.90;;;;;;4927780;29;20198;-75
2022/06/14 01:39:05;;;;;;;4.03;2.10;;;12.90;99.90;;;;;;4929416;29;20202;-75
2022/06/14 01:41:38;;;;;;;3.00;1.90;;;12.70;99.90;;;;;;4930395;29;20226;-73
2022/06/14 01:44:20;;;;;;;4.47;2.70;;;12.60;99.90;;;;;;4934740;29;20198;-75
2022/06/14 01:46:53;;;;;;;4.77;2.30;;;12.70;99.90;;;;;;4934054;29;20227;-75
2022/06/14 01:52:30;;;;;;;5.93;2.53;;;12.80;99.90;;;;;;4929876;29;20239;-73
2022/06/14 01:55:20;;;;;;;3.37;2.47;;;12.90;99.90;;;;;;4931605;29;20201;-73
2022/06/14 01:57:56;;;;;;;4.17;2.30;;;12.90;99.90;;;;;;4931766;29;20218;-74
2022/06/14 02:00:30;;;;;;;4.23;2.60;;;12.90;99.90;;;;;;4927622;29;20578;-74
2022/06/14 02:06:48;;;;;;;7.30;2.53;;;12.90;99.90;;;;;;4929135;29;20213;-75
2022/06/14 02:09:46;;;;;;;4.83;2.80;;;12.90;99.90;;;;;;4932743;29;20199;-75
2022/06/14 02:12:17;;;;;;;4.97;2.60;;;12.60;99.90;;;;;;4916187;29;20216;-74
2022/06/14 02:15:25;;;;;;;4.07;2.80;;;12.30;99.90;;;;;;4930741;29;20950;-74
2022/06/14 02:18:20;;;;;;;6.37;2.60;;;12.10;99.90;;;;;;4926767;29;20199;-74
2022/06/14 02:20:59;;;;;;;3.30;2.53;;;11.90;99.90;;;;;;4929665;29;20269;-74
2022/06/14 02:23:30;;;;;;;3.87;2.43;;;11.80;99.90;;;;;;4929631;29;20215;-74
2022/06/14 02:26:06;;;;;;;5.47;2.90;;;11.70;99.90;;;;;;4931847;29;20205;-71
2022/06/14 02:28:51;;;;;;;3.13;2.73;;;11.60;99.90;;;;;;4927981;29;20911;-74
2022/06/14 02:31:38;;;;;;;3.50;2.60;;;11.60;99.90;;;;;;4925027;29;20293;-73
2022/06/14 02:34:14;;;;;;;5.27;3.20;;;11.60;99.90;;;;;;4929455;29;20198;-74
2022/06/14 02:36:49;;;;;;;4.23;3.03;;;11.80;99.90;;;;;;4934293;29;20204;-73
2022/06/14 02:39:24;;;;;;;4.33;2.87;;;12.00;99.90;;;;;;4929922;29;20203;-72
2022/06/14 02:42:10;;;;;;;4.63;2.83;;;12.00;99.90;;;;;;4931904;29;20724;-71
2022/06/14 02:44:45;;;;;;;5.43;3.03;;;12.00;99.90;;;;;;4929119;29;20262;-74
2022/06/14 02:47:20;;;;;;;5.10;3.07;;;12.10;99.90;;;;;;4931122;29;20248;-74
2022/06/14 02:50:10;;;;;;;6.37;2.87;;;11.90;99.90;;;;;;4933394;29;20230;-73
2022/06/14 02:52:47;;;;;;;6.47;2.80;;;11.70;99.90;;;;;;4931510;29;20215;-74
2022/06/14 02:55:32;;;;;;;5.90;2.83;;;11.60;99.90;;;;;;4928731;29;20196;-74
2022/06/14 02:58:08;;;;;;;5.57;2.97;;;11.50;99.90;;;;;;4934574;29;20336;-75
2022/06/14 03:00:48;;;;;;;5.87;3.17;;;11.40;99.90;;;;;;4927763;29;20222;-75
2022/06/14 03:03:28;;;;;;;5.03;3.03;;;11.40;99.90;;;;;;4924463;29;20199;-74
2022/06/14 03:06:04;;;;;;;4.40;2.83;;;11.30;99.90;;;;;;4928993;29;20203;-74
2022/06/14 03:08:47;;;;;;;8.07;3.40;;;11.20;99.90;;;;;;4927041;29;20199;-74
2022/06/14 03:11:32;;;;;;;5.40;3.23;;;11.10;99.90;;;;;;4926157;29;20286;-76
2022/06/14 03:14:30;;;;;;;7.10;2.97;;;11.10;99.90;;;;;;4927503;29;20196;-76
2022/06/14 03:17:18;;;;;;;4.73;3.10;;;11.20;99.90;;;;;;4931611;29;20206;-73
2022/06/14 03:19:54;;;;;;;3.83;2.60;;;11.50;99.90;;;;;;4929833;29;20207;-73
2022/06/14 03:22:44;;;;;;;5.37;2.80;;;11.40;99.90;;;;;;4927857;29;20784;-74
2022/06/14 03:25:23;;;;;;;4.70;3.10;;;11.30;99.90;;;;;;4930598;29;20202;-73
2022/06/14 03:27:56;;;;;;;4.77;3.07;;;11.30;99.90;;;;;;4926740;29;20584;-75
2022/06/14 03:30:29;;;;;;;3.57;2.73;;;11.40;99.90;;;;;;4930298;29;20245;-73
2022/06/14 03:33:10;;;;;;;4.70;2.80;;;11.50;99.90;;;;;;4932065;29;20204;-73
2022/06/14 03:35:42;;;;;;;6.23;3.03;;;11.60;99.90;;;;;;4927826;29;20632;-75
2022/06/14 03:38:19;;;;;;;5.30;2.70;;;11.80;99.90;;;;;;4932636;29;20195;-74
2022/06/14 03:40:48;;;;;;;5.30;2.77;;;11.80;99.90;;;;;;4926076;29;20226;-75
2022/06/14 03:43:15;;;;;;;4.27;2.60;;;11.60;99.90;;;;;;4932658;29;20229;-74
2022/06/14 03:45:51;;;;;;;3.57;2.97;;;11.50;99.90;;;;;;4931417;29;20211;-75
2022/06/14 03:48:18;;;;;;;4.20;2.97;;;11.50;99.90;;;;;;4932320;29;20571;-74
2022/06/14 03:50:53;;;;;;;4.67;2.47;;;11.40;99.90;;;;;;4929745;29;20232;-74
2022/06/14 03:53:57;;;;;;;4.87;3.30;;;11.40;99.90;;;;;;4930056;29;20610;-74
2022/06/14 03:56:42;;;;;;;4.90;2.63;;;11.40;99.90;;;;;;4922982;29;20200;-75
2022/06/14 03:59:13;;;;;;;3.30;2.70;;;11.40;99.90;;;;;;4935290;29;20210;-74
2022/06/14 04:01:50;;;;;;;4.20;2.90;;;11.40;99.90;;;;;;4925656;29;20219;-72
2022/06/14 04:04:20;;;;;;;5.27;3.07;;;11.50;99.90;;;;;;4933140;29;20202;-74
2022/06/14 04:06:56;;;;;;;4.97;3.23;;;11.50;99.90;;;;;;4932620;29;20200;-73
2022/06/14 04:09:31;;;;;;;3.97;2.70;;;11.50;99.90;;;;;;4927964;29;20201;-73
2022/06/14 04:12:20;;;;;;;5.17;3.10;;;11.80;99.90;;;;;;4926873;29;20214;-73
2022/06/14 04:15:10;;;;;;;4.10;2.80;;;11.80;99.90;;;;;;4917925;29;20204;-73
2022/06/14 04:17:46;;;;;;;6.17;3.03;;;11.80;99.90;;;;;;4926208;29;20202;-75
2022/06/14 04:20:37;;;;;;;6.30;3.00;;;11.80;99.90;;;;;;4928785;29;20198;-74
2022/06/14 04:23:29;;;;;;;5.07;2.87;;;11.80;99.90;;;;;;4924315;29;20214;-74
2022/06/14 04:26:10;;;;;;;6.10;3.10;;;11.80;99.90;;;;;;4931132;29;20267;-73
2022/06/14 04:28:42;;;;;;;4.17;2.83;;;11.90;99.90;;;;;;4927446;29;20202;-73
2022/06/14 04:31:38;;;;;;;3.67;2.80;;;12.00;99.90;;;;;;4928230;29;20226;-73
2022/06/14 04:34:09;;;;;;;4.53;2.57;;;12.00;99.90;;;;;;4923673;29;20192;-72
2022/06/14 04:37:10;;;;;;;5.87;2.60;;;12.10;99.90;;;;;;4926040;29;20199;-72
2022/06/14 04:39:42;;;;;;;5.80;2.63;;;12.30;99.90;;;;;;4928612;29;20774;-74
2022/06/14 04:42:38;;;;;;;4.10;2.63;;;12.60;99.90;;;;;;4926274;29;20219;-74
2022/06/14 04:45:24;;;;;;;5.43;2.50;;;12.60;99.90;;;;;;4921668;29;20875;-73
2022/06/14 04:48:08;;;;;;;3.53;2.50;;;12.80;99.90;;;;;;4929982;29;20215;-70
2022/06/14 04:50:42;;;;;;;3.83;2.27;;;12.80;99.90;;;;;;4930626;29;20779;-74
2022/06/14 04:53:12;;;;;;;3.53;2.17;;;12.90;99.90;;;;;;4929899;29;20205;-73
2022/06/14 04:56:02;;;;;;;3.80;2.47;;;12.80;99.90;;;;;;4932059;29;20194;-75
2022/06/14 04:58:32;;;;;;;3.57;2.47;;;12.80;99.90;;;;;;4917036;29;20202;-74
2022/06/14 05:01:07;;;;;;;3.33;2.23;;;12.90;99.90;;;;;;4930022;29;20242;-73
2022/06/14 05:03:39;;;;;;;5.93;3.00;;;12.90;99.90;;;;;;4928129;29;20209;-74
2022/06/14 05:06:22;;;;;;;4.37;2.50;;;13.10;99.90;;;;;;4927806;29;20209;-76
2022/06/14 05:08:58;;;;;;;4.03;2.63;;;13.20;99.90;;;;;;4930421;29;20207;-73
2022/06/14 05:11:35;;;;;;;4.80;2.60;;;13.10;99.90;;;;;;4925060;29;20221;-72
2022/06/14 05:14:10;;;;;;;4.00;2.40;;;13.30;99.90;;;;;;4926237;29;20208;-74
2022/06/14 05:16:47;;;;;;;4.10;2.53;;;13.40;99.90;;;;;;4927509;29;20205;-75
2022/06/14 05:19:23;;;;;;;5.67;2.37;;;13.50;99.90;;;;;;4927135;29;20214;-74
2022/06/14 05:21:57;;;;;;;3.87;2.70;;;13.50;99.90;;;;;;4922109;29;20227;-75
2022/06/14 05:24:25;;;;;;;4.33;2.37;;;13.60;99.90;;;;;;4921222;29;20210;-72
2022/06/14 05:27:10;;;;;;;5.43;2.63;;;13.80;99.90;;;;;;4927124;29;20660;-74
2022/06/14 05:29:58;;;;;;;4.60;2.37;;;14.00;99.90;;;;;;4925383;29;20214;-73
2022/06/14 05:32:48;;;;;;;6.83;2.80;;;14.30;99.90;;;;;;4922317;29;20224;-74
2022/06/14 05:35:44;;;;;;;4.30;2.67;;;14.70;99.90;;;;;;4930768;29;20238;-73
2022/06/14 05:38:20;;;;;;;5.13;2.80;;;14.80;99.90;;;;;;4920288;29;20596;-74
2022/06/14 05:40:54;;;;;;;5.30;3.10;;;14.80;99.90;;;;;;4927225;29;20230;-73
2022/06/14 05:43:29;;;;;;;7.87;2.80;;;14.80;99.90;;;;;;4933272;29;20206;-69
2022/06/14 05:46:07;;;;;;;8.57;2.60;;;15.00;99.90;;;;;;4931140;29;20205;-71
2022/06/14 05:48:50;;;;;;;7.37;2.80;;;15.10;99.90;;;;;;4926037;29;20201;-71
2022/06/14 05:51:24;;;;;;;8.93;2.47;;;15.20;99.90;;;;;;4932952;29;20430;-71
2022/06/14 05:53:59;;;;;;;11.77;2.67;;;15.30;99.90;;;;;;4926885;29;20484;-71
2022/06/14 05:56:37;;;;;;;5.10;2.27;;;15.20;99.90;;;;;;4927574;29;20204;-72
2022/06/14 05:59:12;;;;;;;5.57;2.10;;;15.30;99.90;;;;;;4926572;29;20692;-72
2022/06/14 06:01:52;;;;;;;5.90;2.10;;;15.40;99.90;;;;;;4928293;29;20235;-74
2022/06/14 06:04:29;;;;;;;7.50;2.13;;;15.50;99.90;;;;;;4932848;29;20609;-73
2022/06/14 06:07:01;;;;;;;6.07;2.17;;;15.60;99.90;;;;;;4928975;29;20498;-72
2022/06/14 06:09:41;;;;;;;5.63;2.20;;;15.70;99.90;;;;;;4918902;29;20202;-74
2022/06/14 06:12:19;;;;;;;3.87;1.80;;;15.80;99.90;;;;;;4924341;29;20236;-74
2022/06/14 06:14:54;;;;;;;2.87;1.83;;;16.00;99.90;;;;;;4932981;29;20198;-73
2022/06/14 06:17:36;;;;;;;6.10;1.60;;;16.20;99.90;;;;;;4933105;29;20199;-73
2022/06/14 06:20:29;;;;;;;8.57;1.90;;;16.30;99.90;;;;;;4929984;29;20580;-75
2022/06/14 06:23:14;;;;;;;2.70;1.70;;;16.80;99.90;;;;;;4932756;29;20624;-73
2022/06/14 06:25:47;;;;;;;1.50;1.40;;;17.30;99.90;;;;;;4930919;29;20625;-74
2022/06/14 06:28:21;;;;;;;4.03;1.50;;;17.50;99.90;;;;;;4933660;29;20199;-74
2022/06/14 06:31:14;;;;;;;4.90;1.50;;;17.40;99.90;;;;;;4933642;29;20328;-74
2022/06/14 06:33:46;;;;;;;4.60;1.63;;;17.30;99.90;;;;;;4934932;29;20217;-74
2022/06/14 06:36:33;;;;;;;5.23;1.60;;;17.30;99.90;;;;;;4927855;29;20199;-74
2022/06/14 06:39:08;;;;;;;2.07;1.60;;;17.20;99.90;;;;;;4922489;29;20203;-73
2022/06/14 06:41:54;;;;;;;4.27;1.97;;;17.30;99.90;;;;;;4930647;29;20221;-74
2022/06/14 06:44:30;;;;;;;7.53;2.17;;;17.30;99.90;;;;;;4934615;29;20207;-73
2022/06/14 06:47:09;;;;;;;3.63;2.07;;;17.40;99.90;;;;;;4934003;29;20195;-73
2022/06/14 06:50:06;;;;;;;7.90;2.60;;;17.50;99.90;;;;;;4932014;29;20203;-75
2022/06/14 06:52:47;;;;;;;4.67;2.10;;;17.80;99.90;;;;;;4930036;29;20722;-73
2022/06/14 06:55:37;;;;;;;4.53;2.00;;;17.80;99.90;;;;;;4930495;29;20209;-73
2022/06/14 06:58:17;;;;;;;5.90;1.77;;;17.90;99.90;;;;;;4921270;29;20211;-75
2022/06/14 07:00:46;;;;;;;10.33;1.90;;;18.30;99.90;;;;;;4925741;29;20226;-72
2022/06/14 07:03:32;;;;;;;5.80;1.93;;;18.70;99.90;;;;;;4928491;29;20199;-72
2022/06/14 07:06:01;;;;;;;5.30;1.77;;;19.20;99.90;;;;;;4924116;29;20199;-72
2022/06/14 07:08:41;;;;;;;7.30;1.73;;;19.80;99.90;;;;;;4931406;29;20199;-72
2022/06/14 07:11:15;;;;;;;2.30;1.60;;;21.00;99.90;;;;;;4931714;29;20699;-73
2022/06/14 07:13:50;;;;;;;9.50;1.60;;;22.10;99.90;;;;;;4934745;29;20191;-73
2022/06/14 07:16:33;;;;;;;6.97;1.55;;;23.10;99.90;;;;;;4933518;29;20198;-72
2022/06/14 07:19:31;;;;;;;5.00;1.17;;;23.80;99.90;;;;;;4932100;29;20203;-72
2022/06/14 07:22:22;;;;;;;5.38;1.60;;;24.40;99.90;;;;;;4934683;29;20234;-72
2022/06/14 07:25:22;;;;;;;4.50;1.40;;;24.70;99.90;;;;;;4932227;29;20207;-72
2022/06/14 07:28:31;;;;;;;3.45;1.55;;;25.00;99.90;;;;;;4933803;29;20199;-71
2022/06/14 07:31:03;;;;;;;3.67;1.70;;;25.30;99.90;;;;;;4879784;29;20733;-70
2022/06/14 07:33:31;;;;;;;5.18;1.30;;;25.60;99.90;;;;;;4878210;29;20201;-72
2022/06/14 07:36:13;;;;;;;5.07;1.73;;;25.60;99.90;;;;;;4903636;29;20231;-72
2022/06/14 07:38:58;;;;;;;7.13;1.50;;;25.60;99.90;;;;;;4930654;29;20199;-70
2022/06/14 07:41:33;;;;;;;5.00;2.00;;;25.60;99.90;;;;;;4925717;29;20215;-71
2022/06/14 07:44:15;;;;;;;4.22;1.52;;;25.70;99.90;;;;;;4931626;29;20208;-73
2022/06/14 07:46:59;;;;;;;3.38;1.83;;;25.50;99.90;;;;;;4927887;29;20207;-73
2022/06/14 07:49:43;;;;;;;7.47;1.55;;;24.70;99.90;;;;;;4933150;29;20203;-71
2022/06/14 07:52:43;;;;;;;2.97;1.55;;;24.80;99.90;;;;;;4933835;29;20319;-73
2022/06/14 07:55:18;;;;;;;4.50;1.58;;;24.60;99.90;;;;;;4930759;29;20655;-73
2022/06/14 07:57:48;;;;;;;4.93;2.22;;;24.90;99.90;;;;;;4935508;29;20206;-73
2022/06/14 08:03:25;;;;;;;2.05;1.40;;;25.00;99.90;;;;;;4934005;29;20635;-72
2022/06/14 08:05:54;;;;;;;4.75;1.35;;;24.70;99.90;;;;;;4935254;29;20212;-71
2022/06/14 08:08:25;;;;;;;3.00;1.30;;;24.80;99.90;;;;;;4939626;29;20214;-73
2022/06/14 08:10:56;;;;;;;3.00;1.60;;;24.60;99.90;;;;;;4937254;29;20258;-73
2022/06/14 08:13:28;;;;;;;5.90;1.70;;;24.20;99.90;;;;;;4937952;29;20252;-73
2022/06/14 08:15:59;;;;;;;3.45;1.63;;;24.20;99.90;;;;;;4940900;29;20725;-73
2022/06/14 08:18:37;;;;;;;5.22;1.48;;;24.30;99.90;;;;;;4933067;29;20254;-74
2022/06/14 08:21:11;;;;;;;3.28;1.63;;;24.20;99.90;;;;;;4935032;29;20225;-73
2022/06/14 08:23:51;;;;;;;4.15;1.75;;;24.20;99.90;;;;;;4932849;29;20216;-72
2022/06/14 08:26:21;;;;;;;4.95;2.08;;;24.20;99.90;;;;;;4930568;29;20242;-72
2022/06/14 08:29:13;;;;;;;3.30;1.33;;;24.00;99.90;;;;;;4927682;29;20203;-73
2022/06/14 08:31:53;;;;;;;2.90;2.08;;;24.10;99.90;;;;;;4918823;29;20226;-72
2022/06/14 08:34:32;;;;;;;4.75;1.90;;;24.00;99.90;;;;;;4927018;29;20191;-71
2022/06/14 08:37:22;;;;;;;2.53;1.73;;;24.00;99.90;;;;;;4928879;29;20203;-71
2022/06/14 08:40:07;;;;;;;3.13;1.50;;;24.00;99.90;;;;;;4931097;29;20202;-72
2022/06/14 08:42:43;;;;;;;2.35;1.20;;;23.70;99.90;;;;;;4927342;29;20230;-73
2022/06/14 08:45:41;;;;;;;1.73;1.35;;;23.10;99.90;;;;;;4927680;29;20634;-73
2022/06/14 08:49:01;;;;;;;3.85;1.73;;;23.30;99.90;;;;;;4927866;29;20265;-73
2022/06/14 08:51:36;;;;;;;1.90;1.50;;;23.30;99.90;;;;;;4871876;29;20240;-73
2022/06/14 08:54:32;;;;;;;3.30;1.50;;;23.40;99.90;;;;;;4871390;29;20657;-73
2022/06/14 08:57:22;;;;;;;3.60;1.65;;;23.10;99.90;;;;;;4912528;29;20191;-73
2022/06/14 09:00:04;;;;;;;2.83;1.38;;;23.20;99.90;;;;;;4933255;29;20675;-74
2022/06/14 09:02:42;;;;;;;3.40;1.50;;;23.30;99.60;;;;;;4927791;29;20224;-71
2022/06/14 09:05:29;;;;;;;3.55;1.52;;;23.40;99.40;;;;;;4929177;29;20202;-73
2022/06/14 09:08:12;;;;;;;3.53;1.60;;;23.50;99.50;;;;;;4929856;29;20573;-74
2022/06/14 09:10:48;;;;;;;4.05;1.83;;;23.70;99.80;;;;;;4927470;29;20218;-74
2022/06/14 09:13:33;;;;;;;3.92;1.40;;;23.70;99.00;;;;;;4927564;29;20254;-72
2022/06/14 09:16:12;;;;;;;11.70;3.20;;;23.20;98.80;;;;;;4934704;29;20199;-73
2022/06/14 09:18:54;;;;;;;3.58;1.75;;;23.10;99.40;;;;;;4935863;29;20539;-74
2022/06/14 09:21:56;;;;;;;3.13;1.67;;;23.20;99.20;;;;;;4930924;29;20222;-71
2022/06/14 09:24:43;;;;;;;3.45;1.67;;;23.40;99.90;;;;;;4926440;29;20199;-74
2022/06/14 09:27:18;;;;;;;2.45;1.80;;;23.60;98.90;;;;;;4931646;29;20199;-74
2022/06/14 09:30:07;;;;;;;4.00;1.77;;;23.80;98.40;;;;;;4933871;29;20405;-74
2022/06/14 09:33:10;;;;;;;3.05;1.60;;;24.00;99.20;;;;;;4932652;29;20223;-73
2022/06/14 09:36:15;;;;;;;4.07;1.40;;;24.10;98.40;;;;;;4929879;29;20194;-74
2022/06/14 09:39:03;;;;;;;2.65;1.60;;;24.30;98.30;;;;;;4929553;29;20693;-73
2022/06/14 09:42:04;;;;;;;4.90;1.40;;;24.20;97.80;;;;;;4930960;29;20707;-72
2022/06/14 09:45:00;;;;;;;6.82;1.40;;;23.80;97.20;;;;;;4929993;29;20282;-73
2022/06/14 09:47:30;;;;;;;2.08;1.50;;;23.90;98.60;;;;;;4934009;29;20195;-72
2022/06/14 09:50:33;;;;;;;3.33;1.95;;;23.80;96.90;;;;;;4932978;29;20206;-74
2022/06/14 09:53:33;;;;;;;2.50;1.55;;;23.80;97.10;;;;;;4932475;29;20686;-72
2022/06/14 09:56:27;;;;;;;5.18;1.70;;;24.00;96.20;;;;;;4914336;29;20568;-72
2022/06/14 09:59:16;;;;;;;3.20;1.80;;;23.90;96.40;;;;;;4934004;29;20206;-73
2022/06/14 10:02:09;;;;;;;3.72;1.83;;;24.10;96.50;;;;;;4929689;29;20249;-73
2022/06/14 10:05:21;;;;;;;2.40;1.40;;;24.20;96.30;;;;;;4926911;29;20294;-72
2022/06/14 10:08:03;;;;;;;1.67;1.23;;;24.10;96.30;;;;;;4929584;29;20210;-73
2022/06/14 10:11:07;;;;;;;2.30;1.20;;;24.30;95.40;;;;;;4934220;29;20203;-70
2022/06/14 10:13:56;;;;;;;3.10;1.45;;;24.50;95.40;;;;;;4933079;29;20199;-71
2022/06/14 10:17:11;;;;;;;2.90;1.30;;;24.50;94.60;;;;;;4931470;29;20191;-73
2022/06/14 10:20:02;;;;;;;2.28;1.65;;;24.60;95.50;;;;;;4929099;29;20197;-74
2022/06/14 10:23:06;;;;;;;3.95;1.67;;;24.50;95.50;;;;;;4929278;29;20233;-74
2022/06/14 10:29:10;;;;;;;6.32;1.70;;;24.80;96.10;;;;;;4933726;29;20552;-73
2022/06/14 10:31:45;;;;;;;5.95;1.75;;;25.10;95.80;;;;;;4929379;29;20268;-74
2022/06/14 10:34:40;;;;;;;3.35;1.48;;;25.20;95.70;;;;;;4932009;29;20582;-74
2022/06/14 10:37:31;;;;;;;5.43;1.85;;;25.40;94.80;;;;;;4934364;29;20202;-74
2022/06/14 10:40:04;;;;;;;6.25;1.77;;;25.30;94.50;;;;;;4929961;29;20194;-74
2022/06/14 10:43:03;;;;;;;5.22;2.13;;;25.40;95.30;;;;;;4931433;29;20226;-74
2022/06/14 10:45:55;;;;;;;9.05;1.90;;;25.40;95.30;;;;;;4930437;29;20208;-74
2022/06/14 10:48:46;;;;;;;4.03;1.38;;;25.50;94.90;;;;;;4963142;28;20203;-74
2022/06/14 10:51:25;;;;;;;2.78;1.58;;;25.50;94.80;;;;;;4932646;29;20218;-73
2022/06/14 10:54:20;;;;;;;3.55;1.50;;;25.50;94.30;;;;;;4934546;29;20203;-74
2022/06/14 10:56:52;;;;;;;4.10;1.52;;;25.50;95.50;;;;;;4928170;29;20203;-73
2022/06/14 10:59:52;;;;;;;5.78;1.60;;;25.60;95.50;;;;;;4931875;29;20649;-74
2022/06/14 11:02:36;;;;;;;2.17;1.50;;;25.40;93.80;;;;;;4920072;29;20274;-73
2022/06/14 11:05:16;;;;;;;7.05;1.80;;;25.40;93.90;;;;;;4929480;29;20238;-72
2022/06/14 11:07:54;;;;;;;2.72;1.48;;;25.20;93.50;;;;;;4934718;29;20222;-73
2022/06/14 11:10:53;;;;;;;3.63;1.48;;;25.20;91.40;;;;;;4931017;29;20202;-72
2022/06/14 11:13:44;;;;;;;4.50;1.40;;;25.20;91.30;;;;;;4930131;29;20667;-72
2022/06/14 11:16:23;;;;;;;3.45;2.08;;;25.30;92.40;;;;;;4932677;29;20195;-74
2022/06/14 11:19:31;;;;;;;3.80;1.48;;;25.30;92.80;;;;;;4932821;29;20199;-73
2022/06/14 11:22:44;;;;;;;3.05;1.52;;;25.30;93.00;;;;;;4930749;29;20235;-75
2022/06/14 11:25:43;;;;;;;5.22;1.40;;;25.50;93.20;;;;;;4930646;29;20250;-74
2022/06/14 11:28:24;;;;;;;3.80;1.63;;;25.90;92.70;;;;;;4932320;29;20659;-73
2022/06/14 11:31:15;;;;;;;2.30;1.20;;;26.00;93.40;;;;;;4931581;29;20225;-74
2022/06/14 11:34:14;;;;;;;3.38;1.40;;;26.10;90.70;;;;;;4931080;29;20248;-73
2022/06/14 11:37:26;;;;;;;2.42;1.50;;;25.80;90.30;;;;;;4931200;29;20199;-73
2022/06/14 11:40:19;;;;;;;2.05;1.50;;;25.60;88.40;;;;;;4929293;29;20210;-73
2022/06/14 11:43:07;;;;;;;3.40;1.52;;;25.60;91.50;;;;;;4929646;29;20213;-73
2022/06/14 11:45:43;;;;;;;3.55;1.60;;;25.90;91.60;;;;;;4931713;29;20199;-71
2022/06/14 11:48:29;;;;;;;2.80;1.40;;;25.80;90.70;;;;;;4931707;29;20675;-75
2022/06/14 11:51:33;;;;;;;2.85;1.50;;;26.00;91.30;;;;;;4926931;29;20230;-74
2022/06/14 11:54:00;;;;;;;2.90;1.30;;;26.20;86.30;;;;;;4932927;29;20199;-73
2022/06/14 11:56:53;;;;;;;2.63;1.35;;;26.30;89.10;;;;;;4929298;29;20195;-73
2022/06/14 11:59:49;;;;;;;3.10;1.45;;;26.10;89.60;;;;;;4903852;29;20206;-74
2022/06/14 12:02:43;;;;;;;2.38;1.50;;;26.20;90.10;;;;;;4929023;29;20222;-73
2022/06/14 12:05:37;;;;;;;5.30;1.50;;;26.20;90.30;;;;;;4929532;29;20205;-73
2022/06/14 12:08:44;;;;;;;1.90;1.10;;;26.40;85.70;;;;;;4925952;29;20550;-73
2022/06/14 12:11:10;;;;;;;2.60;1.30;;;26.50;90.00;;;;;;4942975;29;20218;-73
2022/06/14 12:14:03;;;;;;;3.33;1.33;;;26.50;85.10;;;;;;4929918;29;20249;-74
2022/06/14 12:16:41;;;;;;;3.65;1.20;;;26.50;84.70;;;;;;4930422;29;20199;-74
2022/06/14 12:19:24;;;;;;;2.72;1.33;;;26.60;84.20;;;;;;4929634;29;20249;-73
2022/06/14 12:22:34;;;;;;;4.60;1.48;;;26.60;82.80;;;;;;4929854;29;20234;-73
2022/06/14 12:28:22;;;;;;;2.13;1.30;;;26.30;86.00;;;;;;4927872;29;20194;-74
2022/06/14 12:30:52;;;;;;;4.20;1.30;;;26.30;85.60;;;;;;4927311;29;20231;-74
2022/06/14 12:33:30;;;;;;;2.35;1.20;;;26.50;84.00;;;;;;4931937;29;20233;-73
2022/06/14 12:36:23;;;;;;;2.60;1.42;;;26.70;81.80;;;;;;4931953;29;20210;-74
2022/06/14 12:38:55;;;;;;;3.88;1.45;;;26.80;85.70;;;;;;4927763;29;20209;-74
2022/06/14 12:41:32;;;;;;;3.20;1.40;;;26.60;81.70;;;;;;4930478;29;20265;-74
2022/06/14 12:44:28;;;;;;;1.92;1.20;;;26.70;82.90;;;;;;4932001;29;20205;-74
2022/06/14 12:47:00;;;;;;;2.60;1.20;;;26.80;82.90;;;;;;4929865;29;20203;-73
2022/06/14 12:49:34;;;;;;;1.33;1.08;;;27.00;83.20;;;;;;4929726;29;20203;-73
2022/06/14 12:52:20;;;;;;;1.98;1.35;;;27.10;84.70;;;;;;4930459;29;20238;-73
2022/06/14 12:54:51;;;;;;;1.88;1.20;;;27.10;84.50;;;;;;4929847;29;20195;-72
2022/06/14 12:57:28;;;;;;;4.78;1.60;;;27.00;85.50;;;;;;4928389;29;20195;-72
2022/06/14 13:00:09;;;;;;;3.15;1.30;;;26.80;85.70;;;;;;4930221;29;20206;-70
2022/06/14 13:02:44;;;;;;;2.58;1.10;;;26.90;83.80;;;;;;4926240;29;20755;-73
2022/06/14 13:05:11;;;;;;;2.20;1.20;;;26.80;81.80;;;;;;4922765;29;20204;-73
2022/06/14 13:07:49;;;;;;;1.73;1.40;;;26.80;81.70;;;;;;4932611;29;20198;-73
2022/06/14 13:10:34;;;;;;;2.67;1.27;;;26.90;84.90;;;;;;4929458;29;20198;-73
2022/06/14 13:13:31;;;;;;;3.78;1.30;;;27.00;85.20;;;;;;4927054;29;20238;-73
2022/06/14 13:16:00;;;;;;;1.88;1.23;;;27.30;85.40;;;;;;4930001;29;20635;-73
2022/06/14 13:19:06;;;;;;;2.13;1.40;;;27.50;82.70;;;;;;4930657;29;20679;-73
2022/06/14 13:21:58;;;;;;;2.97;1.30;;;27.60;82.90;;;;;;4928562;29;20215;-73
2022/06/14 13:24:50;;;;;;;2.40;1.40;;;27.70;82.30;;;;;;4928278;29;20211;-73
2022/06/14 13:27:39;;;;;;;1.88;1.33;;;27.70;83.20;;;;;;4931588;29;20210;-74
2022/06/14 13:30:23;;;;;;;4.95;1.48;;;27.80;82.70;;;;;;4925193;29;20203;-74
2022/06/14 13:32:56;;;;;;;3.00;1.30;;;27.80;82.60;;;;;;4928637;29;20604;-72
2022/06/14 13:35:38;;;;;;;2.25;1.38;;;27.90;84.40;;;;;;4928704;29;20198;-74
2022/06/14 13:38:14;;;;;;;3.22;1.40;;;27.40;85.10;;;;;;4931233;29;20676;-73
2022/06/14 13:40:47;;;;;;;3.05;1.30;;;27.20;85.90;;;;;;4924988;29;20218;-74
2022/06/14 13:43:22;;;;;;;1.85;1.25;;;27.00;85.00;;;;;;4926189;29;20687;-74
2022/06/14 13:46:08;;;;;;;2.97;1.30;;;27.00;84.80;;;;;;4929862;29;20203;-73
2022/06/14 13:48:50;;;;;;;2.90;1.20;;;27.00;87.40;;;;;;4925999;29;20235;-73
2022/06/14 13:51:39;;;;;;;2.72;1.33;;;27.10;82.90;;;;;;4927093;29;20225;-74
2022/06/14 13:54:11;;;;;;;1.77;1.20;;;27.20;84.00;;;;;;4961509;28;20270;-73
2022/06/14 13:57:13;;;;;;;5.38;1.60;;;27.20;81.50;;;;;;4927390;29;20578;-73
2022/06/14 13:59:47;;;;;;;3.63;1.52;;;27.10;82.40;;;;;;4903141;29;20203;-72
2022/06/14 14:02:24;;;;;;;3.25;1.40;;;27.20;80.50;;;;;;4932012;29;20222;-73
2022/06/14 14:04:57;;;;;;;2.33;1.00;;;27.20;79.70;;;;;;4932189;29;20202;-73
2022/06/14 14:07:34;;;;;;;2.83;1.25;;;27.30;78.70;;;;;;4926706;29;20203;-73
2022/06/14 14:10:04;;;;;;;3.20;1.30;;;27.00;80.60;;;;;;4930195;29;20202;-73
2022/06/14 14:12:41;;;;;;;2.38;1.23;;;27.10;79.30;;;;;;4933160;29;20230;-73
2022/06/14 14:15:11;;;;;;;3.25;1.40;;;27.10;81.90;;;;;;4926499;29;20266;-72
2022/06/14 14:17:56;;;;;;;3.58;1.38;;;27.20;80.40;;;;;;4931754;29;20203;-74